Time;durP1;ratioP1;P1;durP2;ratioP2;P2;SDS_P1;SDS_P2;PMS_P1;PMS_P2;Temp;Humidity;BMP_temperature;BMP_pressure;BME280_temperature;BME280_humidity;BME280_pressure;Samples;Min_cycle;Max_cycle;Signal;HPM_P1;HPM_P2
2021/01/16 00:00:14;;;;;;;22.02;6.97;;;-6.00;99.90;;;;;;4371888;28;659898;-60
2021/01/16 00:03:01;;;;;;;25.53;6.97;;;-6.10;99.90;;;;;;4401894;28;659742;-59
2021/01/16 00:05:49;;;;;;;29.05;6.88;;;-6.20;99.90;;;;;;4384208;28;658826;-60
2021/01/16 00:08:37;;;;;;;22.00;7.30;;;-6.30;99.90;;;;;;4409551;28;659205;-57
2021/01/16 00:11:24;;;;;;;19.80;6.75;;;-6.40;99.90;;;;;;4385654;28;659000;-60
2021/01/16 00:14:11;;;;;;;19.17;5.90;;;-6.50;99.90;;;;;;4395085;28;658305;-59
2021/01/16 00:16:58;;;;;;;20.25;6.25;;;-6.50;99.90;;;;;;4406333;28;660048;-59
2021/01/16 00:19:45;;;;;;;17.30;5.60;;;-6.60;99.90;;;;;;4377991;28;660124;-60
2021/01/16 00:22:32;;;;;;;19.88;6.07;;;-6.50;99.90;;;;;;4408224;28;660435;-59
2021/01/16 00:25:20;;;;;;;22.67;6.20;;;-6.50;99.90;;;;;;4369896;28;658535;-60
2021/01/16 00:28:11;;;;;;;15.10;5.30;;;-6.50;99.90;;;;;;4382523;28;659384;-59
2021/01/16 00:30:59;;;;;;;18.43;7.00;;;-6.50;99.90;;;;;;4364004;28;658626;-59
2021/01/16 00:33:46;;;;;;;23.77;6.60;;;-6.40;99.90;;;;;;4394105;28;658699;-59
2021/01/16 00:36:33;;;;;;;20.42;6.40;;;-6.40;99.90;;;;;;4393779;28;658588;-58
2021/01/16 00:39:20;;;;;;;24.00;6.87;;;-6.50;99.90;;;;;;4360529;28;660519;-58
2021/01/16 00:42:08;;;;;;;18.87;6.00;;;-6.50;99.90;;;;;;4385351;28;659677;-58
2021/01/16 00:44:55;;;;;;;15.57;5.63;;;-6.40;99.90;;;;;;4366836;28;659572;-59
2021/01/16 00:47:42;;;;;;;17.63;5.73;;;-6.50;99.90;;;;;;4365873;28;659880;-59
2021/01/16 00:50:29;;;;;;;20.00;6.63;;;-6.60;99.90;;;;;;4373197;28;660107;-59
2021/01/16 00:53:16;;;;;;;14.77;5.43;;;-6.70;99.90;;;;;;4393380;28;660257;-59
2021/01/16 00:56:04;;;;;;;18.30;5.83;;;-6.70;99.90;;;;;;4368358;28;658632;-60
2021/01/16 00:58:52;;;;;;;19.27;5.63;;;-6.80;99.90;;;;;;4382176;28;660092;-59
2021/01/16 01:01:39;;;;;;;17.13;5.60;;;-6.90;99.90;;;;;;4366367;28;658461;-59
2021/01/16 01:04:26;;;;;;;13.70;4.73;;;-6.90;99.90;;;;;;4390146;28;660569;-60
2021/01/16 01:07:14;;;;;;;15.17;5.33;;;-7.00;99.90;;;;;;4388236;28;659365;-60
2021/01/16 01:10:01;;;;;;;21.98;6.25;;;-6.90;99.90;;;;;;4393736;28;658179;-58
2021/01/16 01:12:49;;;;;;;16.90;5.40;;;-6.80;99.90;;;;;;4389633;28;659490;-59
2021/01/16 01:15:37;;;;;;;20.85;6.07;;;-6.90;99.90;;;;;;4363426;28;660513;-60
2021/01/16 01:18:24;;;;;;;18.20;6.10;;;-6.90;99.90;;;;;;4366371;28;658672;-60
2021/01/16 01:21:11;;;;;;;19.92;6.30;;;-7.00;99.90;;;;;;4398090;28;658482;-59
2021/01/16 01:23:58;;;;;;;22.03;5.93;;;-7.00;99.90;;;;;;4385409;28;659432;-59
2021/01/16 01:26:44;;;;;;;17.27;6.07;;;-7.00;99.90;;;;;;4388173;28;660269;-59
2021/01/16 01:29:31;;;;;;;18.83;5.80;;;-7.10;99.90;;;;;;4406109;28;659932;-60
2021/01/16 01:32:20;;;;;;;18.20;5.70;;;-7.10;99.90;;;;;;4391207;28;658682;-60
2021/01/16 01:35:08;;;;;;;19.67;6.40;;;-7.10;99.90;;;;;;4405969;28;659836;-59
2021/01/16 01:37:56;;;;;;;17.47;6.00;;;-7.20;99.90;;;;;;4373631;28;658467;-59
2021/01/16 01:40:43;;;;;;;15.13;6.00;;;-7.10;99.90;;;;;;4412128;28;658686;-59
2021/01/16 01:43:30;;;;;;;15.03;5.57;;;-7.20;99.90;;;;;;4382639;28;658562;-59
2021/01/16 01:46:17;;;;;;;20.20;6.18;;;-7.10;99.90;;;;;;4399700;28;659709;-59
2021/01/16 01:49:05;;;;;;;19.35;5.65;;;-7.10;99.90;;;;;;4374802;28;659259;-60
2021/01/16 01:51:52;;;;;;;20.67;6.83;;;-7.10;99.90;;;;;;4396984;28;659019;-59
2021/01/16 01:54:39;;;;;;;22.33;6.70;;;-7.10;99.90;;;;;;4384669;28;658204;-60
2021/01/16 01:57:26;;;;;;;16.40;5.93;;;-7.10;99.90;;;;;;4403425;28;658919;-59
2021/01/16 02:00:15;;;;;;;17.27;6.03;;;-7.10;99.90;;;;;;4387870;28;659614;-60
2021/01/16 02:03:02;;;;;;;21.47;6.40;;;-7.10;99.90;;;;;;4397278;28;659762;-59
2021/01/16 02:05:53;;;;;;;19.25;5.97;;;-7.10;99.90;;;;;;4379967;28;658775;-60
2021/01/16 02:08:40;;;;;;;22.25;7.63;;;-7.00;99.90;;;;;;4389118;28;659916;-58
2021/01/16 02:11:27;;;;;;;15.43;5.72;;;-7.00;99.90;;;;;;4391967;28;659451;-59
2021/01/16 02:14:14;;;;;;;20.33;6.60;;;-6.90;99.90;;;;;;4388177;28;659165;-60
2021/01/16 02:17:02;;;;;;;15.20;6.23;;;-7.00;99.90;;;;;;4410443;28;659120;-59
2021/01/16 02:20:02;;;;;;;23.43;6.70;;;-6.90;99.90;;;;;;4376135;28;658803;-60
2021/01/16 02:23:15;;;;;;;22.90;7.63;;;-6.80;99.90;;;;;;4369951;28;658747;-58
2021/01/16 02:26:32;;;;;;;22.70;6.97;;;-6.60;99.90;;;;;;4361865;28;658765;-59
2021/01/16 02:29:20;;;;;;;25.92;7.00;;;-6.70;99.90;;;;;;4345901;28;659367;-60
2021/01/16 02:32:07;;;;;;;13.83;5.13;;;-6.70;99.90;;;;;;4380410;28;660012;-59
2021/01/16 02:34:54;;;;;;;23.80;6.97;;;-6.70;99.90;;;;;;4369209;28;658512;-60
2021/01/16 02:37:55;;;;;;;22.13;7.03;;;-6.60;99.90;;;;;;4392780;28;659423;-58
2021/01/16 02:40:43;;;;;;;20.23;6.88;;;-6.70;99.90;;;;;;4363645;28;658632;-60
2021/01/16 02:43:33;;;;;;;19.03;7.07;;;-6.80;99.90;;;;;;4362280;28;659373;-58
2021/01/16 02:46:26;;;;;;;20.93;6.80;;;-6.80;99.90;;;;;;4357323;28;659627;-58
2021/01/16 02:49:41;;;;;;;24.87;7.57;;;-6.90;99.90;;;;;;4349878;28;659877;-61
2021/01/16 02:52:30;;;;;;;21.90;5.97;;;-7.00;99.90;;;;;;4367501;28;659114;-60
2021/01/16 02:55:17;;;;;;;20.13;6.55;;;-7.10;99.90;;;;;;4364601;28;660795;-59
2021/01/16 02:58:04;;;;;;;22.92;6.85;;;-7.10;99.90;;;;;;4369488;28;660219;-60
2021/01/16 03:00:51;;;;;;;20.10;6.90;;;-7.10;99.90;;;;;;4391608;28;658292;-59
2021/01/16 03:03:39;;;;;;;21.07;6.10;;;-7.20;99.90;;;;;;4370215;28;658765;-58
2021/01/16 03:06:26;;;;;;;22.30;6.40;;;-7.20;99.90;;;;;;4357809;28;660093;-58
2021/01/16 03:09:16;;;;;;;17.50;6.97;;;-7.20;99.90;;;;;;4392200;28;660085;-60
2021/01/16 03:12:04;;;;;;;24.67;7.30;;;-7.20;99.90;;;;;;4345242;28;659351;-59
2021/01/16 03:14:52;;;;;;;20.20;6.87;;;-7.20;99.90;;;;;;4365359;28;660067;-59
2021/01/16 03:17:48;;;;;;;17.70;5.80;;;-7.20;99.90;;;;;;4360324;28;659526;-59
2021/01/16 03:20:36;;;;;;;19.50;6.63;;;-7.20;99.90;;;;;;4341535;28;659334;-59
2021/01/16 03:23:24;;;;;;;21.88;6.80;;;-7.20;99.90;;;;;;4363886;28;659433;-59
2021/01/16 03:26:11;;;;;;;26.57;7.57;;;-7.20;99.90;;;;;;4388573;28;659532;-59
2021/01/16 03:28:58;;;;;;;20.80;7.40;;;-7.20;99.90;;;;;;4380731;28;660280;-59
2021/01/16 03:31:45;;;;;;;24.23;7.20;;;-7.30;99.90;;;;;;4362016;28;658477;-59
2021/01/16 03:34:32;;;;;;;21.87;7.20;;;-7.30;99.90;;;;;;4386735;28;660093;-59
2021/01/16 03:37:21;;;;;;;18.40;7.00;;;-7.40;99.90;;;;;;4362441;28;658740;-59
2021/01/16 03:40:09;;;;;;;22.33;7.00;;;-7.50;99.90;;;;;;4386352;28;659992;-59
2021/01/16 03:42:56;;;;;;;20.90;6.93;;;-7.50;99.90;;;;;;4361701;28;660555;-59
2021/01/16 03:45:43;;;;;;;22.17;7.07;;;-7.60;99.90;;;;;;4386529;28;658613;-58
2021/01/16 03:48:30;;;;;;;18.17;6.50;;;-7.50;99.90;;;;;;4362686;28;658706;-59
2021/01/16 03:51:17;;;;;;;23.92;7.20;;;-7.50;99.90;;;;;;4386473;28;660519;-59
2021/01/16 03:54:05;;;;;;;16.27;6.73;;;-7.50;99.90;;;;;;4366621;28;658889;-60
2021/01/16 03:56:52;;;;;;;20.93;6.50;;;-7.50;99.90;;;;;;4386134;28;659625;-59
2021/01/16 03:59:39;;;;;;;20.73;6.93;;;-7.40;99.90;;;;;;4367409;28;658686;-59
2021/01/16 04:02:26;;;;;;;19.60;7.57;;;-7.10;99.90;;;;;;4379060;28;660625;-60
2021/01/16 04:05:14;;;;;;;15.13;5.97;;;-7.10;99.90;;;;;;4380713;28;660216;-58
2021/01/16 04:08:01;;;;;;;24.77;8.40;;;-7.00;99.90;;;;;;4365151;28;659012;-59
2021/01/16 04:10:49;;;;;;;18.73;6.87;;;-6.90;99.90;;;;;;4388257;28;659033;-60
2021/01/16 04:13:36;;;;;;;16.17;5.83;;;-6.90;99.90;;;;;;4348563;28;660442;-58
2021/01/16 04:16:25;;;;;;;19.77;7.57;;;-6.70;99.90;;;;;;4383716;28;659648;-61
2021/01/16 04:19:11;;;;;;;18.38;6.05;;;-6.70;99.90;;;;;;4390783;28;660246;-59
2021/01/16 04:21:59;;;;;;;18.47;6.27;;;-6.70;99.90;;;;;;4364906;28;658722;-60
2021/01/16 04:24:46;;;;;;;18.23;7.20;;;-6.50;99.90;;;;;;4395326;28;659894;-59
2021/01/16 04:27:34;;;;;;;8.43;2.87;;;-6.30;99.90;;;;;;4381487;28;659205;-59
2021/01/16 04:30:22;;;;;;;24.43;7.83;;;-6.30;99.90;;;;;;4378229;28;659308;-58
2021/01/16 04:33:09;;;;;;;21.17;7.33;;;-6.20;99.90;;;;;;4366171;28;658702;-58
2021/01/16 04:35:56;;;;;;;26.33;9.00;;;-6.30;99.90;;;;;;4386802;28;659847;-60
2021/01/16 04:38:44;;;;;;;27.33;8.83;;;-6.30;99.90;;;;;;4383417;28;659397;-60
2021/01/16 04:41:31;;;;;;;22.60;7.87;;;-6.30;99.90;;;;;;4390233;28;659857;-59
2021/01/16 04:44:19;;;;;;;26.77;7.55;;;-6.20;99.90;;;;;;4383748;28;658422;-60
2021/01/16 04:47:06;;;;;;;29.00;9.10;;;-6.20;99.90;;;;;;4364283;28;660062;-58
2021/01/16 04:49:53;;;;;;;7.87;3.60;;;-6.00;99.90;;;;;;4382901;28;658184;-59
2021/01/16 04:52:40;;;;;;;11.53;5.80;;;-6.00;99.90;;;;;;4360655;28;658973;-59
2021/01/16 04:55:27;;;;;;;13.57;5.23;;;-5.90;99.90;;;;;;4378174;28;659367;-59
2021/01/16 04:58:14;;;;;;;28.37;9.37;;;-5.70;99.90;;;;;;4366112;28;659180;-60
2021/01/16 05:01:04;;;;;;;27.20;9.82;;;-5.80;99.90;;;;;;4382266;28;658280;-59
2021/01/16 05:03:51;;;;;;;26.47;8.60;;;-5.90;99.90;;;;;;4367475;28;659479;-58
2021/01/16 05:06:39;;;;;;;18.63;7.40;;;-6.10;99.90;;;;;;4371029;28;658546;-60
2021/01/16 05:09:27;;;;;;;41.37;11.90;;;-5.90;99.90;;;;;;4391771;28;659417;-59
2021/01/16 05:12:31;;;;;;;26.87;9.53;;;-6.00;99.90;;;;;;4363269;28;661134;-60
2021/01/16 05:15:22;;;;;;;32.88;11.77;;;-6.00;99.90;;;;;;4340044;28;659496;-60
2021/01/16 05:18:10;;;;;;;25.73;10.77;;;-6.10;99.90;;;;;;4368616;28;659708;-59
2021/01/16 05:20:57;;;;;;;29.20;9.90;;;-5.80;99.90;;;;;;4373485;28;659818;-58
2021/01/16 05:23:45;;;;;;;33.83;11.33;;;-5.70;99.90;;;;;;4369508;28;659601;-59
2021/01/16 05:26:32;;;;;;;25.55;9.15;;;-5.60;99.90;;;;;;4386966;28;661074;-59
2021/01/16 05:29:19;;;;;;;32.37;10.10;;;-5.70;99.90;;;;;;4362858;28;659550;-59
2021/01/16 05:32:06;;;;;;;29.83;10.87;;;-5.70;99.90;;;;;;4379507;28;661258;-59
2021/01/16 05:34:55;;;;;;;31.00;11.47;;;-5.80;99.90;;;;;;4378770;28;659677;-60
2021/01/16 05:37:43;;;;;;;30.40;11.77;;;-5.90;99.90;;;;;;4387097;28;660571;-58
2021/01/16 05:40:30;;;;;;;19.83;8.13;;;-5.90;99.90;;;;;;4372369;28;660528;-59
2021/01/16 05:43:19;;;;;;;25.20;10.40;;;-5.80;99.90;;;;;;4382157;28;660008;-60
2021/01/16 05:46:06;;;;;;;31.10;10.47;;;-5.80;99.90;;;;;;4363922;28;661675;-59
2021/01/16 05:48:57;;;;;;;25.53;11.60;;;-5.80;99.90;;;;;;4373886;28;660286;-60
2021/01/16 05:51:45;;;;;;;33.33;12.77;;;-5.60;99.90;;;;;;4370043;28;660844;-60
2021/01/16 05:54:32;;;;;;;32.60;11.50;;;-5.50;99.90;;;;;;4381860;28;660598;-60
2021/01/16 05:57:19;;;;;;;31.73;11.23;;;-5.50;99.90;;;;;;4368332;28;659418;-60
2021/01/16 06:00:07;;;;;;;29.83;11.63;;;-5.50;99.90;;;;;;4386472;28;660749;-59
2021/01/16 06:02:54;;;;;;;24.80;10.47;;;-5.50;99.90;;;;;;4364671;28;662020;-60
2021/01/16 06:05:46;;;;;;;29.07;11.83;;;-5.60;99.90;;;;;;4374845;28;660341;-59
2021/01/16 06:08:35;;;;;;;24.70;9.35;;;-5.50;99.90;;;;;;4342974;28;660696;-60
2021/01/16 06:11:22;;;;;;;33.63;10.97;;;-5.50;99.90;;;;;;4385029;28;660303;-59
2021/01/16 06:14:09;;;;;;;22.97;9.17;;;-5.40;99.90;;;;;;4357023;28;659707;-60
2021/01/16 06:16:57;;;;;;;24.17;10.07;;;-5.20;99.90;;;;;;4382750;28;659474;-59
2021/01/16 06:19:45;;;;;;;28.63;10.63;;;-5.30;99.90;;;;;;4361610;28;660306;-59
2021/01/16 06:22:33;;;;;;;33.03;11.17;;;-5.40;99.90;;;;;;4386618;28;660520;-59
2021/01/16 06:25:22;;;;;;;26.57;10.77;;;-5.50;99.90;;;;;;4360044;28;660298;-59
2021/01/16 06:28:09;;;;;;;18.27;7.90;;;-5.60;99.90;;;;;;4362668;28;660322;-59
2021/01/16 06:30:57;;;;;;;31.67;11.67;;;-5.50;99.90;;;;;;4381704;28;659803;-59
2021/01/16 06:33:44;;;;;;;14.10;3.30;;;-5.50;99.90;;;;;;4367548;28;661214;-60
2021/01/16 06:36:32;;;;;;;33.63;12.10;;;-5.40;99.90;;;;;;4386113;28;659094;-59
2021/01/16 06:39:19;;;;;;;33.88;12.20;;;-5.30;99.90;;;;;;4361664;28;660441;-60
2021/01/16 06:42:09;;;;;;;36.57;12.97;;;-5.40;99.90;;;;;;4387222;28;661163;-59
2021/01/16 06:45:04;;;;;;;32.77;12.20;;;-5.30;99.90;;;;;;4356727;28;661111;-59
2021/01/16 06:47:55;;;;;;;34.17;12.77;;;-5.30;99.90;;;;;;4355020;28;660164;-60
2021/01/16 06:50:42;;;;;;;11.90;5.87;;;-5.30;99.90;;;;;;4356578;28;660881;-60
2021/01/16 06:53:29;;;;;;;41.87;13.70;;;-5.20;99.90;;;;;;4369413;28;658617;-60
2021/01/16 06:56:24;;;;;;;25.90;9.37;;;-5.20;99.90;;;;;;4369984;28;660636;-59
2021/01/16 06:59:14;;;;;;;32.77;11.93;;;-5.20;99.90;;;;;;4360483;28;659861;-59
2021/01/16 07:02:01;;;;;;;29.47;11.87;;;-5.10;99.90;;;;;;4353590;28;660243;-59
2021/01/16 07:04:52;;;;;;;23.43;7.40;;;-5.20;99.90;;;;;;4366748;28;659224;-60
2021/01/16 07:07:40;;;;;;;19.07;7.47;;;-5.00;99.90;;;;;;4360476;28;659568;-60
2021/01/16 07:10:30;;;;;;;35.40;13.30;;;-5.00;99.90;;;;;;4379787;28;659400;-59
2021/01/16 07:13:17;;;;;;;33.17;13.60;;;-4.90;99.90;;;;;;4359414;28;660003;-60
2021/01/16 07:16:06;;;;;;;36.63;13.87;;;-5.00;99.90;;;;;;4369982;28;659678;-59
2021/01/16 07:18:52;;;;;;;34.43;12.47;;;-5.10;99.90;;;;;;4365302;28;659682;-59
2021/01/16 07:21:40;;;;;;;38.20;14.70;;;-5.10;99.90;;;;;;4364684;28;659535;-60
2021/01/16 07:24:27;;;;;;;40.63;12.50;;;-5.00;99.90;;;;;;4370866;28;659958;-58
2021/01/16 07:27:14;;;;;;;7.13;2.60;;;-5.10;99.90;;;;;;4362570;28;659797;-60
2021/01/16 07:30:02;;;;;;;40.73;14.47;;;-4.80;99.90;;;;;;4388737;28;658578;-59
2021/01/16 07:32:50;;;;;;;35.97;13.87;;;-4.80;99.90;;;;;;4363745;28;660526;-60
2021/01/16 07:35:37;;;;;;;31.13;11.60;;;-4.70;99.90;;;;;;4384900;28;659910;-59
2021/01/16 07:38:24;;;;;;;40.20;12.73;;;-4.70;99.90;;;;;;4367595;28;660331;-59
2021/01/16 07:41:11;;;;;;;39.93;15.50;;;-4.70;99.90;;;;;;4374892;28;661784;-59
2021/01/16 07:44:04;;;;;;;34.30;9.73;;;-4.70;99.90;;;;;;4385790;28;660163;-60
2021/01/16 07:46:52;;;;;;;38.37;14.60;;;-4.60;99.90;;;;;;4361326;28;659060;-59
2021/01/16 07:49:40;;;;;;;14.33;4.93;;;-4.60;99.90;;;;;;4366360;28;659852;-60
2021/01/16 07:52:27;;;;;;;22.33;8.70;;;-4.60;99.90;;;;;;4379881;28;659883;-59
2021/01/16 07:55:17;;;;;;;35.07;14.30;;;-4.40;99.90;;;;;;4364479;28;659651;-60
2021/01/16 07:58:09;;;;;;;27.53;10.33;;;-4.40;99.90;;;;;;4351868;28;660401;-61
2021/01/16 08:00:57;;;;;;;25.07;9.37;;;-4.40;99.90;;;;;;4356799;28;660517;-60
2021/01/16 08:04:11;;;;;;;28.57;10.83;;;-4.30;99.90;;;;;;4347437;28;658640;-60
2021/01/16 08:07:06;;;;;;;26.70;9.17;;;-4.20;99.90;;;;;;4353559;28;661401;-60
2021/01/16 08:09:57;;;;;;;34.08;13.35;;;-4.10;99.90;;;;;;4359361;28;659492;-59
2021/01/16 08:12:44;;;;;;;30.90;10.43;;;-4.20;99.90;;;;;;4343487;28;660701;-60
2021/01/16 08:15:31;;;;;;;22.13;10.00;;;-4.10;99.90;;;;;;4389891;28;659262;-60
2021/01/16 08:18:20;;;;;;;33.13;11.77;;;-4.10;99.90;;;;;;4389483;28;660648;-59
2021/01/16 08:21:10;;;;;;;29.07;11.50;;;-4.10;99.90;;;;;;4361709;28;660841;-60
2021/01/16 08:23:58;;;;;;;25.43;10.87;;;-4.00;99.90;;;;;;4364966;28;660953;-59
2021/01/16 08:26:51;;;;;;;27.13;10.70;;;-3.80;99.90;;;;;;4357984;28;659876;-59
2021/01/16 08:29:38;;;;;;;25.90;10.88;;;-3.80;99.90;;;;;;4344062;28;659822;-60
2021/01/16 08:32:25;;;;;;;29.83;9.95;;;-3.80;99.90;;;;;;4362757;28;659339;-60
2021/01/16 08:35:13;;;;;;;11.30;4.70;;;-3.70;99.90;;;;;;4386350;28;660077;-59
2021/01/16 08:38:22;;;;;;;23.03;9.60;;;-3.70;99.90;;;;;;4362002;28;658515;-60
2021/01/16 08:41:10;;;;;;;29.13;10.40;;;-3.70;99.90;;;;;;4330868;28;658948;-60
2021/01/16 08:43:58;;;;;;;30.07;9.97;;;-3.90;99.90;;;;;;4386210;28;659052;-59
2021/01/16 08:46:44;;;;;;;25.70;10.77;;;-3.70;99.90;;;;;;4369968;28;658674;-59
2021/01/16 08:49:31;;;;;;;21.83;8.23;;;-3.60;99.90;;;;;;4376763;28;660219;-60
2021/01/16 08:52:31;;;;;;;21.98;9.30;;;-3.50;99.90;;;;;;4370614;28;658646;-60
2021/01/16 08:55:20;;;;;;;29.00;10.80;;;-3.50;99.90;;;;;;4335945;28;658379;-59
2021/01/16 08:58:09;;;;;;;25.07;7.80;;;-3.60;99.90;;;;;;4380171;28;659940;-60
2021/01/16 09:00:56;;;;;;;30.50;10.95;;;-3.60;99.90;;;;;;4355999;28;660253;-60
2021/01/16 09:03:43;;;;;;;14.00;5.57;;;-3.50;99.90;;;;;;4382905;28;660035;-58
2021/01/16 09:06:30;;;;;;;12.63;5.43;;;-3.50;99.90;;;;;;4362004;28;660562;-58
2021/01/16 09:09:24;;;;;;;28.93;11.30;;;-3.40;99.90;;;;;;4376468;28;658289;-60
2021/01/16 09:12:12;;;;;;;12.60;4.73;;;-3.70;99.90;;;;;;4329300;28;660533;-58
2021/01/16 09:15:20;;;;;;;23.93;8.80;;;-3.70;99.90;;;;;;4355552;28;658836;-60
2021/01/16 09:18:09;;;;;;;20.20;9.00;;;-3.60;99.90;;;;;;4356369;28;659602;-59
2021/01/16 09:21:00;;;;;;;29.10;11.27;;;-3.70;99.90;;;;;;4360518;28;659486;-59
2021/01/16 09:23:47;;;;;;;13.57;5.53;;;-3.60;99.90;;;;;;4355958;28;659881;-59
2021/01/16 09:26:34;;;;;;;15.77;5.37;;;-3.50;99.90;;;;;;4357350;28;659820;-60
2021/01/16 09:29:26;;;;;;;35.10;11.10;;;-3.60;99.90;;;;;;4390476;28;659195;-59
2021/01/16 09:32:32;;;;;;;33.20;8.83;;;-3.40;99.90;;;;;;4353719;28;659446;-60
2021/01/16 09:35:35;;;;;;;19.70;7.23;;;-3.00;99.90;;;;;;4334343;28;658904;-60
2021/01/16 09:38:22;;;;;;;28.47;10.27;;;-2.60;99.90;;;;;;4359129;28;658897;-59
2021/01/16 09:41:09;;;;;;;15.10;5.63;;;-2.60;99.90;;;;;;4355031;28;659631;-59
2021/01/16 09:43:56;;;;;;;20.97;9.13;;;-2.40;99.90;;;;;;4390241;28;659326;-59
2021/01/16 09:46:44;;;;;;;26.80;10.87;;;-2.20;99.90;;;;;;4371792;28;659479;-60
2021/01/16 09:49:43;;;;;;;25.90;8.03;;;-2.30;99.90;;;;;;4377248;28;659395;-59
2021/01/16 09:52:30;;;;;;;28.57;11.37;;;-2.30;99.90;;;;;;4339492;28;659858;-59
2021/01/16 09:55:18;;;;;;;33.63;13.80;;;-2.20;99.90;;;;;;4370554;28;660399;-60
2021/01/16 09:58:05;;;;;;;31.43;11.27;;;-2.50;99.90;;;;;;4355886;28;661399;-59
2021/01/16 10:00:52;;;;;;;32.30;9.87;;;-2.30;99.90;;;;;;4379066;28;660027;-60
2021/01/16 10:03:39;;;;;;;17.17;6.67;;;-2.40;99.90;;;;;;4366098;28;658452;-59
2021/01/16 10:06:33;;;;;;;27.90;9.50;;;-2.60;99.90;;;;;;4379520;28;659929;-60
2021/01/16 10:09:20;;;;;;;11.68;4.53;;;-2.50;99.90;;;;;;4342541;28;659264;-59
2021/01/16 10:12:08;;;;;;;28.38;9.60;;;-2.50;99.90;;;;;;4381203;28;659382;-59
2021/01/16 10:14:54;;;;;;;26.87;11.43;;;-2.50;99.90;;;;;;4349190;28;659899;-59
2021/01/16 10:17:46;;;;;;;16.00;6.27;;;-2.60;99.90;;;;;;4383752;28;660252;-59
2021/01/16 10:20:34;;;;;;;41.53;13.02;;;-2.70;99.90;;;;;;4360851;28;658630;-59
2021/01/16 10:23:21;;;;;;;35.40;11.83;;;-2.50;99.90;;;;;;4347234;28;661608;-58
2021/01/16 10:26:09;;;;;;;37.47;12.03;;;-2.50;99.90;;;;;;4373748;28;660623;-60
2021/01/16 10:29:18;;;;;;;30.30;10.50;;;-2.60;99.90;;;;;;4373566;28;661771;-59
2021/01/16 10:32:21;;;;;;;28.05;8.90;;;-2.60;99.90;;;;;;4320699;28;661969;-60
2021/01/16 10:35:09;;;;;;;17.73;6.37;;;-2.70;99.90;;;;;;4352377;28;658733;-60
2021/01/16 10:37:57;;;;;;;24.00;8.97;;;-2.70;99.90;;;;;;4364177;28;660371;-59
2021/01/16 10:40:51;;;;;;;29.70;12.93;;;-2.80;99.90;;;;;;4348963;28;658721;-59
2021/01/16 10:43:38;;;;;;;25.77;11.13;;;-2.60;99.90;;;;;;4357047;28;660103;-60
2021/01/16 10:46:30;;;;;;;16.17;6.47;;;-2.60;99.90;;;;;;4357548;28;659673;-59
2021/01/16 10:49:19;;;;;;;28.63;11.47;;;-2.70;99.90;;;;;;4350923;28;658604;-60
2021/01/16 10:52:06;;;;;;;22.50;10.20;;;-2.70;99.90;;;;;;4358564;28;660792;-59
2021/01/16 10:54:57;;;;;;;28.80;11.83;;;-2.90;99.90;;;;;;4378789;28;659971;-59
2021/01/16 10:57:46;;;;;;;25.33;8.10;;;-3.00;99.90;;;;;;4361612;28;660223;-59
2021/01/16 11:00:42;;;;;;;21.70;8.93;;;-2.90;99.90;;;;;;4383323;28;659972;-60
2021/01/16 11:03:30;;;;;;;29.40;11.93;;;-2.80;99.90;;;;;;4333427;28;659784;-59
2021/01/16 11:06:17;;;;;;;24.00;8.73;;;-2.80;99.90;;;;;;4376575;28;660017;-59
2021/01/16 11:09:05;;;;;;;22.73;8.47;;;-2.60;99.90;;;;;;4365983;28;658898;-59
2021/01/16 11:11:52;;;;;;;26.25;10.32;;;-2.20;99.90;;;;;;4384068;28;660828;-60
2021/01/16 11:14:40;;;;;;;26.33;9.40;;;-2.30;99.90;;;;;;4365006;28;659591;-60
2021/01/16 11:17:47;;;;;;;28.87;11.33;;;-2.20;99.90;;;;;;4373035;28;659025;-59
2021/01/16 11:20:34;;;;;;;25.70;11.00;;;-1.90;99.90;;;;;;4355531;28;659768;-60
2021/01/16 11:23:32;;;;;;;29.23;10.77;;;-1.90;99.90;;;;;;4389755;28;660349;-59
2021/01/16 11:26:19;;;;;;;24.93;9.20;;;-1.80;99.90;;;;;;4336957;28;660877;-60
2021/01/16 11:29:12;;;;;;;24.80;9.60;;;-1.90;99.90;;;;;;4378685;28;660190;-59
2021/01/16 11:32:00;;;;;;;31.27;11.73;;;-1.90;99.90;;;;;;4338173;28;659539;-60
2021/01/16 11:35:08;;;;;;;27.10;10.33;;;-2.10;99.90;;;;;;4368896;28;659990;-59
2021/01/16 11:37:56;;;;;;;13.10;6.20;;;-2.10;99.90;;;;;;4360623;28;660529;-60
2021/01/16 11:40:46;;;;;;;21.80;10.13;;;-2.10;99.90;;;;;;4369662;28;658931;-59
2021/01/16 11:43:34;;;;;;;23.60;9.33;;;-2.10;99.90;;;;;;4369819;28;660342;-60
2021/01/16 11:46:21;;;;;;;20.53;8.27;;;-2.00;99.90;;;;;;4388323;28;658519;-59
2021/01/16 11:49:09;;;;;;;30.70;12.30;;;-2.20;99.90;;;;;;4369825;28;658571;-60
2021/01/16 11:51:56;;;;;;;22.03;9.00;;;-2.40;99.90;;;;;;4359764;28;661756;-59
2021/01/16 11:54:43;;;;;;;28.10;12.03;;;-2.20;99.90;;;;;;4375941;28;658773;-59
2021/01/16 11:57:30;;;;;;;27.07;10.80;;;-2.30;99.90;;;;;;4355982;28;659809;-59
2021/01/16 12:00:17;;;;;;;29.27;11.63;;;-2.20;99.90;;;;;;4382671;28;660021;-59
2021/01/16 12:03:05;;;;;;;25.40;11.07;;;-2.30;99.90;;;;;;4351865;28;659569;-59
2021/01/16 12:05:53;;;;;;;16.67;7.97;;;-2.50;99.90;;;;;;4376253;28;661349;-59
2021/01/16 12:08:42;;;;;;;22.73;8.63;;;-2.50;99.90;;;;;;4363563;28;659879;-60
2021/01/16 12:11:29;;;;;;;28.20;10.87;;;-2.40;99.90;;;;;;4367862;28;659826;-60
2021/01/16 12:14:16;;;;;;;31.50;11.90;;;-2.50;99.90;;;;;;4384951;28;659122;-59
2021/01/16 12:17:07;;;;;;;32.03;9.93;;;-2.70;99.90;;;;;;4374577;28;659399;-60
2021/01/16 12:19:54;;;;;;;29.70;11.33;;;-2.60;99.90;;;;;;4365473;28;658502;-59
2021/01/16 12:22:43;;;;;;;22.33;8.77;;;-2.60;99.90;;;;;;4377269;28;661172;-59
2021/01/16 12:25:31;;;;;;;15.93;6.70;;;-2.70;99.90;;;;;;4360880;28;658686;-59
2021/01/16 12:28:23;;;;;;;16.07;6.80;;;-2.60;99.90;;;;;;4381501;28;659276;-60
2021/01/16 12:31:19;;;;;;;22.47;8.03;;;-2.30;99.90;;;;;;4345723;28;660088;-60
2021/01/16 12:34:07;;;;;;;12.53;5.37;;;-2.20;99.90;;;;;;4361658;28;660170;-58
2021/01/16 12:36:54;;;;;;;17.90;7.60;;;-2.20;99.90;;;;;;4360294;28;659205;-60
2021/01/16 12:39:45;;;;;;;11.10;5.33;;;-2.30;99.90;;;;;;4374227;28;659633;-60
2021/01/16 12:42:32;;;;;;;18.07;6.57;;;-2.40;99.90;;;;;;4362281;28;659775;-60
2021/01/16 12:45:20;;;;;;;9.43;4.07;;;-2.30;99.90;;;;;;4359755;28;658655;-59
2021/01/16 12:48:07;;;;;;;10.83;3.90;;;-2.50;99.90;;;;;;4387595;28;658363;-58
2021/01/16 12:50:56;;;;;;;10.93;3.33;;;-2.60;99.10;;;;;;4363217;28;659149;-59
2021/01/16 12:53:43;;;;;;;8.67;3.43;;;-2.60;99.90;;;;;;4377351;28;658650;-59
2021/01/16 12:56:31;;;;;;;9.50;4.60;;;-2.60;99.90;;;;;;4362917;28;658928;-60
2021/01/16 12:59:19;;;;;;;11.87;4.43;;;-2.70;99.90;;;;;;4376594;28;657358;-59
2021/01/16 13:02:06;;;;;;;9.00;3.40;;;-2.90;99.90;;;;;;4393263;28;659306;-59
2021/01/16 13:04:54;;;;;;;7.43;3.07;;;-2.80;99.90;;;;;;4389527;28;657879;-59
2021/01/16 13:07:41;;;;;;;8.53;3.00;;;-2.70;99.90;;;;;;4355372;28;659294;-60
2021/01/16 13:10:29;;;;;;;9.80;3.87;;;-2.80;99.90;;;;;;4378313;28;658015;-59
2021/01/16 13:13:17;;;;;;;9.50;3.73;;;-3.00;99.90;;;;;;4369764;28;658461;-60
2021/01/16 13:16:04;;;;;;;11.30;4.15;;;-3.10;99.90;;;;;;4366045;28;657935;-60
2021/01/16 13:18:51;;;;;;;5.30;2.10;;;-3.20;99.90;;;;;;4387927;28;659487;-59
2021/01/16 13:21:38;;;;;;;9.37;3.90;;;-3.20;99.90;;;;;;4388752;28;657547;-60
2021/01/16 13:24:25;;;;;;;12.90;4.27;;;-3.20;99.90;;;;;;4360900;28;657442;-59
2021/01/16 13:27:21;;;;;;;9.80;3.33;;;-3.50;99.90;;;;;;4371504;28;659643;-59
2021/01/16 13:30:10;;;;;;;10.33;4.13;;;-3.60;99.90;;;;;;4361151;28;658587;-60
2021/01/16 13:32:57;;;;;;;13.83;5.60;;;-3.70;99.90;;;;;;4360086;28;658515;-59
2021/01/16 13:35:44;;;;;;;9.87;4.33;;;-3.80;99.90;;;;;;4365945;28;658900;-60
2021/01/16 13:38:32;;;;;;;11.50;5.30;;;-3.70;99.90;;;;;;4392998;28;658492;-59
2021/01/16 13:41:19;;;;;;;21.13;8.13;;;-3.60;99.90;;;;;;4367764;28;659939;-58
2021/01/16 13:44:06;;;;;;;13.57;5.83;;;-3.80;99.90;;;;;;4376962;28;659220;-59
2021/01/16 13:46:55;;;;;;;13.47;5.47;;;-3.90;99.90;;;;;;4374258;28;658673;-59
2021/01/16 13:49:42;;;;;;;17.83;6.37;;;-4.00;99.90;;;;;;4380320;28;658903;-59
2021/01/16 13:52:29;;;;;;;13.20;5.27;;;-4.10;99.90;;;;;;4370703;28;659084;-59
2021/01/16 13:55:16;;;;;;;11.63;4.87;;;-4.20;99.90;;;;;;4376102;28;658511;-60
2021/01/16 13:58:04;;;;;;;12.98;5.90;;;-4.20;99.90;;;;;;4367732;28;659545;-60
2021/01/16 14:00:51;;;;;;;15.23;5.37;;;-4.30;99.90;;;;;;4379246;28;659398;-59
2021/01/16 14:03:40;;;;;;;20.83;8.35;;;-4.30;99.90;;;;;;4367935;28;658563;-60
2021/01/16 14:06:27;;;;;;;18.85;7.63;;;-4.30;99.90;;;;;;4385748;28;659986;-59
2021/01/16 14:09:25;;;;;;;21.85;9.65;;;-4.40;99.90;;;;;;4370025;28;658577;-60
2021/01/16 14:12:14;;;;;;;14.77;6.07;;;-4.30;99.90;;;;;;4355331;28;658952;-59
2021/01/16 14:15:05;;;;;;;29.53;10.80;;;-4.20;99.90;;;;;;4363567;28;660305;-60